createdAt,value
2022-11-21T00:10:34.509Z,-2.70
2022-11-21T00:15:36.822Z,-2.90
2022-11-21T00:20:40.559Z,-3.00
2022-11-21T00:25:43.634Z,-3.00
2022-11-21T00:30:46.215Z,-3.00
2022-11-21T00:35:48.550Z,-3.10
2022-11-21T00:40:50.896Z,-3.00
2022-11-21T00:45:53.198Z,-3.10
2022-11-21T00:50:55.673Z,-3.20
2022-11-21T00:55:58.257Z,-3.30
2022-11-21T01:01:12.545Z,-3.50
2022-11-21T01:06:15.437Z,-3.60
2022-11-21T01:11:19.547Z,-3.60
2022-11-21T01:16:24.521Z,-3.60
2022-11-21T01:21:29.669Z,-3.50
2022-11-21T01:26:38.107Z,-3.60
2022-11-21T01:31:40.441Z,-3.70
2022-11-21T01:36:43.046Z,-3.40
2022-11-21T01:41:45.960Z,-3.40
2022-11-21T01:46:49.529Z,-3.30
2022-11-21T01:52:09.654Z,-3.10
2022-11-21T01:57:27.032Z,-3.00
2022-11-21T02:02:36.862Z,-2.70
2022-11-21T02:07:43.151Z,-2.70
2022-11-21T02:12:56.283Z,-2.50
2022-11-21T02:17:58.560Z,-2.50
2022-11-21T02:23:18.772Z,-2.10
2022-11-21T02:28:23.895Z,-1.90
2022-11-21T02:33:26.237Z,-1.80
2022-11-21T02:38:35.588Z,-1.70
2022-11-21T02:43:43.862Z,-1.70
2022-11-21T02:48:46.790Z,-1.60
2022-11-21T02:53:49.113Z,-1.70
2022-11-21T02:58:51.471Z,-1.60
2022-11-21T03:03:53.726Z,-1.50
2022-11-21T03:08:56.035Z,-1.50
2022-11-21T03:13:58.576Z,-1.40
2022-11-21T03:19:01.086Z,-1.30
2022-11-21T03:24:03.587Z,-1.30
2022-11-21T03:29:05.948Z,-1.30
2022-11-21T03:34:09.014Z,-1.30
2022-11-21T03:39:11.493Z,-1.40
2022-11-21T03:44:13.967Z,-1.30
2022-11-21T03:49:16.849Z,-1.30
2022-11-21T03:54:19.127Z,-1.30
2022-11-21T03:59:21.446Z,-1.20
2022-11-21T04:04:23.706Z,-1.10
2022-11-21T04:09:26.072Z,-1.00
2022-11-21T04:14:28.562Z,-1.00
2022-11-21T04:19:31.028Z,-1.00
2022-11-21T04:24:33.333Z,-0.90
2022-11-21T04:29:35.630Z,-0.90
2022-11-21T04:34:39.652Z,-0.90
2022-11-21T04:39:41.966Z,-0.90
2022-11-21T04:44:44.199Z,-0.90
2022-11-21T04:49:46.517Z,-0.80
2022-11-21T04:54:48.844Z,-0.80
2022-11-21T04:59:51.126Z,-0.80
2022-11-21T05:04:53.496Z,-0.80
2022-11-21T05:09:55.757Z,-0.80
2022-11-21T05:14:58.402Z,-0.80
2022-11-21T05:20:00.877Z,-0.70
2022-11-21T05:25:03.554Z,-0.70
2022-11-21T05:30:06.371Z,-0.60
2022-11-21T05:35:09.052Z,-0.70
2022-11-21T05:40:11.706Z,-0.60
2022-11-21T05:45:14.048Z,-0.50
2022-11-21T05:50:16.647Z,-0.50
2022-11-21T05:55:18.947Z,-0.50
2022-11-21T06:00:21.377Z,-0.60
2022-11-21T06:05:23.642Z,-0.50
2022-11-21T06:10:25.922Z,-0.40
2022-11-21T06:15:29.513Z,-0.40
2022-11-21T06:20:31.801Z,-0.40
2022-11-21T06:25:34.271Z,-0.40
2022-11-21T06:30:36.754Z,-0.30
2022-11-21T06:35:39.218Z,-0.30
2022-11-21T06:40:41.546Z,-0.30
2022-11-21T06:45:43.811Z,-0.30
2022-11-21T06:50:46.110Z,-0.20
2022-11-21T06:55:48.456Z,-0.20
2022-11-21T07:00:50.816Z,-0.10
2022-11-21T07:05:58.491Z,0.00
2022-11-21T07:16:31.076Z,0.00
2022-11-21T07:21:33.553Z,0.00
2022-11-21T07:26:35.844Z,0.10
2022-11-21T07:31:38.424Z,0.00
2022-11-21T07:36:41.129Z,0.10
2022-11-21T07:41:44.502Z,0.20
2022-11-21T07:46:46.822Z,0.30
2022-11-21T07:51:50.510Z,0.20
2022-11-21T07:56:52.866Z,0.30
2022-11-21T08:01:55.333Z,0.30
2022-11-21T08:06:57.827Z,0.30
2022-11-21T08:12:00.178Z,0.40
2022-11-21T08:17:04.100Z,0.30
2022-11-21T08:22:06.378Z,0.30
2022-11-21T08:27:08.659Z,0.40
2022-11-21T08:32:13.225Z,0.40
2022-11-21T08:37:15.490Z,0.50
2022-11-21T08:42:17.819Z,0.50
2022-11-21T08:47:20.637Z,0.50
2022-11-21T08:52:23.299Z,0.60
2022-11-21T08:57:25.592Z,0.60
2022-11-21T09:02:27.845Z,0.60
2022-11-21T09:07:30.150Z,0.60
2022-11-21T09:12:32.408Z,0.60
2022-11-21T09:17:53.379Z,0.70
2022-11-21T09:22:55.605Z,0.70
2022-11-21T09:28:03.347Z,0.80
2022-11-21T09:33:08.356Z,0.80
2022-11-21T09:38:10.955Z,0.80
2022-11-21T09:43:46.467Z,0.90
2022-11-21T09:48:54.579Z,0.90
2022-11-21T09:54:27.324Z,0.90
2022-11-21T09:59:38.839Z,1.00
2022-11-21T10:04:41.441Z,1.10
2022-11-21T10:10:03.784Z,1.10
2022-11-21T10:15:43.687Z,1.10
2022-11-21T10:21:23.065Z,1.20
2022-11-21T10:26:58.099Z,1.20
2022-11-21T10:32:13.470Z,1.20
2022-11-21T10:37:38.638Z,1.30
2022-11-21T10:42:46.456Z,1.30
2022-11-21T10:47:50.954Z,1.40
2022-11-21T10:52:58.857Z,1.50
2022-11-21T10:58:17.471Z,1.50
2022-11-21T11:03:20.910Z,1.50
2022-11-21T11:08:23.171Z,1.60
2022-11-21T11:13:50.945Z,1.70
2022-11-21T11:19:03.301Z,1.70
2022-11-21T11:24:15.018Z,1.70
2022-11-21T11:29:21.631Z,1.60
2022-11-21T11:34:28.425Z,1.70
2022-11-21T11:39:40.437Z,1.80
2022-11-21T11:45:33.415Z,1.80
2022-11-21T11:50:44.737Z,2.00
2022-11-21T11:55:55.849Z,2.00
2022-11-21T12:01:10.738Z,1.90
2022-11-21T12:07:07.197Z,1.90
2022-11-21T12:12:15.790Z,1.90
2022-11-21T12:17:24.562Z,1.80
2022-11-21T12:22:27.060Z,1.60
2022-11-21T12:27:32.690Z,1.70
2022-11-21T12:32:49.576Z,1.70
2022-11-21T12:38:06.705Z,1.70
2022-11-21T12:43:29.402Z,1.80
2022-11-21T12:49:07.000Z,1.80
2022-11-21T12:54:37.849Z,1.90
2022-11-21T13:00:13.736Z,1.80
2022-11-21T13:05:29.062Z,1.60
2022-11-21T13:10:32.479Z,1.70
2022-11-21T13:15:43.546Z,1.70
2022-11-21T13:20:51.475Z,1.70
2022-11-21T13:25:53.864Z,1.70
2022-11-21T13:30:57.157Z,1.70
2022-11-21T13:36:00.267Z,1.60
2022-11-21T13:41:21.311Z,1.60
2022-11-21T13:47:02.600Z,1.50
2022-11-21T13:52:19.863Z,1.60
2022-11-21T13:57:57.415Z,1.50
2022-11-21T14:03:33.371Z,1.40
2022-11-21T14:08:35.973Z,1.40
2022-11-21T14:13:38.955Z,1.30
2022-11-21T14:18:44.766Z,1.30
2022-11-21T14:23:48.266Z,1.30
2022-11-21T14:28:50.591Z,1.30
2022-11-21T14:33:58.432Z,1.30
2022-11-21T14:44:32.023Z,1.20
2022-11-21T14:49:34.541Z,1.10
2022-11-21T14:55:00.295Z,1.20
2022-11-21T15:00:10.203Z,1.10
2022-11-21T15:05:28.999Z,1.00
2022-11-21T15:10:39.146Z,1.00
2022-11-21T15:15:49.067Z,1.00
2022-11-21T15:20:57.152Z,1.00
2022-11-21T15:26:01.517Z,1.00
2022-11-21T15:31:18.435Z,1.00
2022-11-21T15:36:20.802Z,1.00
2022-11-21T15:41:30.381Z,1.00
2022-11-21T15:46:44.181Z,0.90
2022-11-21T15:57:12.770Z,0.90
2022-11-21T16:02:18.934Z,0.90
2022-11-21T16:07:21.522Z,1.00
2022-11-21T16:12:24.060Z,0.90
2022-11-21T16:17:28.477Z,1.00
2022-11-21T16:22:31.793Z,0.90
2022-11-21T16:27:34.177Z,1.00
2022-11-21T16:32:36.639Z,1.00
2022-11-21T16:37:42.431Z,0.90
2022-11-21T16:42:44.842Z,0.80
2022-11-21T16:47:49.106Z,0.80
2022-11-21T16:52:51.896Z,0.90
2022-11-21T16:57:57.934Z,0.80
2022-11-21T17:03:04.750Z,0.80
2022-11-21T17:08:07.271Z,0.80
2022-11-21T17:13:09.678Z,0.70
2022-11-21T17:18:16.686Z,0.80
2022-11-21T17:23:20.473Z,0.70
2022-11-21T17:28:24.930Z,0.70
2022-11-21T17:33:37.462Z,0.70
2022-11-21T17:38:47.088Z,0.70
2022-11-21T17:44:06.700Z,0.80
2022-11-21T17:49:14.252Z,0.70
2022-11-21T17:54:19.277Z,0.70
2022-11-21T19:04:20.712Z,0.70
2022-11-21T20:03:14.642Z,0.80
2022-11-21T20:08:18.180Z,0.80
2022-11-21T20:13:20.998Z,0.70
2022-11-21T20:18:23.820Z,0.70
2022-11-21T20:23:26.296Z,0.80
2022-11-21T20:28:28.903Z,0.70
2022-11-21T20:33:35.366Z,0.80
2022-11-21T20:38:38.786Z,0.80
2022-11-21T20:44:20.022Z,0.60
2022-11-21T20:49:03.844Z,0.70
2022-11-21T20:54:06.479Z,0.70
2022-11-21T20:59:09.270Z,0.70
2022-11-21T21:04:12.224Z,0.80
2022-11-21T21:09:14.794Z,0.70
2022-11-21T21:14:17.263Z,0.60
2022-11-21T21:19:20.630Z,0.50
2022-11-21T21:24:25.923Z,0.60
2022-11-21T21:29:28.756Z,0.50
2022-11-21T21:34:32.759Z,0.60
2022-11-21T21:39:35.672Z,0.50
2022-11-21T21:44:38.279Z,0.40
2022-11-21T21:49:41.134Z,0.50
2022-11-21T21:54:44.998Z,0.50
2022-11-21T21:59:47.410Z,0.60
2022-11-21T22:04:52.118Z,0.70
2022-11-21T22:09:55.585Z,0.60
2022-11-21T22:14:58.055Z,0.70
2022-11-21T22:20:00.485Z,0.70
2022-11-21T22:25:03.065Z,0.70
2022-11-21T22:30:05.923Z,0.70
2022-11-21T22:35:08.481Z,0.60
2022-11-21T22:40:12.012Z,0.60
2022-11-21T22:45:14.542Z,0.60
2022-11-21T22:50:17.050Z,0.60
2022-11-21T22:55:19.624Z,0.60
2022-11-21T23:00:22.189Z,0.60
2022-11-21T23:05:25.031Z,0.40
2022-11-21T23:10:27.522Z,0.50
2022-11-21T23:15:30.121Z,0.70
2022-11-21T23:20:32.774Z,0.50
2022-11-21T23:25:35.326Z,0.50
2022-11-21T23:30:37.928Z,0.50
2022-11-21T23:35:40.419Z,0.50
2022-11-21T23:40:46.207Z,0.50
2022-11-21T23:45:52.711Z,0.60
2022-11-21T23:50:55.618Z,0.50
2022-11-21T23:55:58.023Z,0.50
